createdAt,value
2019-03-25T00:01:40.305Z,3.67
2019-03-25T00:06:44.607Z,3.67
2019-03-25T00:11:48.836Z,3.80
2019-03-25T00:16:53.042Z,3.90
2019-03-25T00:21:57.253Z,3.40
2019-03-25T00:27:01.469Z,3.87
2019-03-25T00:32:05.795Z,4.20
2019-03-25T00:37:10.003Z,3.70
2019-03-25T00:42:14.304Z,3.60
2019-03-25T00:47:18.541Z,3.93
2019-03-25T00:52:22.766Z,3.60
2019-03-25T00:57:26.979Z,3.50
2019-03-25T01:02:31.491Z,4.00
2019-03-25T01:07:35.722Z,3.77
2019-03-25T01:12:39.937Z,3.33
2019-03-25T01:17:44.156Z,3.63
2019-03-25T01:22:48.370Z,4.10
2019-03-25T01:27:52.586Z,3.37
2019-03-25T01:32:56.828Z,3.80
2019-03-25T01:38:01.351Z,3.50
2019-03-25T01:43:05.710Z,3.23
2019-03-25T01:48:09.922Z,3.57
2019-03-25T01:53:14.134Z,3.40
2019-03-25T01:58:18.430Z,4.03
2019-03-25T02:03:22.619Z,3.67
2019-03-25T02:08:26.820Z,4.33
2019-03-25T02:13:31.022Z,3.20
2019-03-25T02:18:35.230Z,3.17
2019-03-25T02:23:39.454Z,3.43
2019-03-25T02:28:43.662Z,3.83
2019-03-25T02:33:47.897Z,3.60
2019-03-25T02:38:52.101Z,3.67
2019-03-25T02:43:56.299Z,3.77
2019-03-25T02:49:00.526Z,3.60
2019-03-25T02:54:04.799Z,3.80
2019-03-25T02:59:09.004Z,3.27
2019-03-25T03:04:13.249Z,3.63
2019-03-25T03:09:17.514Z,3.77
2019-03-25T03:14:21.706Z,3.80
2019-03-25T03:19:25.918Z,3.40
2019-03-25T03:24:30.159Z,3.67
2019-03-25T03:29:34.365Z,3.93
2019-03-25T03:34:39.420Z,3.87
2019-03-25T03:39:43.743Z,12.37
2019-03-25T03:44:48.017Z,5.93
2019-03-25T03:49:52.341Z,4.87
2019-03-25T03:54:56.666Z,4.10
2019-03-25T04:00:01.865Z,3.70
2019-03-25T04:05:06.275Z,4.00
2019-03-25T04:10:10.997Z,4.00
2019-03-25T04:15:18.338Z,4.20
2019-03-25T04:20:23.213Z,3.70
2019-03-25T04:25:27.514Z,4.07
2019-03-25T04:30:31.714Z,3.87
2019-03-25T04:35:35.981Z,4.07
2019-03-25T04:40:40.186Z,3.90
2019-03-25T04:45:44.388Z,4.20
2019-03-25T04:50:48.577Z,4.33
2019-03-25T04:55:52.788Z,4.67
2019-03-25T05:00:56.993Z,4.47
2019-03-25T05:06:01.193Z,4.17
2019-03-25T05:11:05.572Z,4.30
2019-03-25T05:16:09.777Z,4.20
2019-03-25T05:21:13.977Z,4.50
2019-03-25T05:26:18.169Z,4.10
2019-03-25T05:31:22.372Z,5.20
2019-03-25T05:36:26.568Z,4.60
2019-03-25T05:41:30.769Z,4.60
2019-03-25T05:46:35.328Z,5.07
2019-03-25T05:51:39.546Z,4.50
2019-03-25T05:56:43.749Z,5.47
2019-03-25T06:01:47.964Z,5.17
2019-03-25T06:06:52.321Z,4.67
2019-03-25T06:11:57.009Z,5.40
2019-03-25T06:17:01.660Z,5.60
2019-03-25T06:22:05.864Z,5.80
2019-03-25T06:27:14.470Z,5.63
2019-03-25T06:32:16.005Z,5.53
2019-03-25T06:37:20.220Z,5.30
2019-03-25T06:42:24.608Z,6.10
2019-03-25T06:47:28.826Z,6.67
2019-03-25T06:52:33.441Z,5.33
2019-03-25T06:57:38.739Z,5.90
2019-03-25T07:02:43.392Z,6.00
2019-03-25T07:07:50.047Z,5.80
2019-03-25T07:12:54.457Z,5.80
2019-03-25T07:17:59.423Z,6.00
2019-03-25T07:23:04.946Z,5.97
2019-03-25T07:28:09.290Z,6.47
2019-03-25T07:33:13.577Z,6.00
2019-03-25T07:38:17.977Z,5.67
2019-03-25T07:43:22.975Z,5.70
2019-03-25T07:48:27.217Z,5.60
2019-03-25T07:53:32.043Z,6.10
2019-03-25T07:58:36.605Z,5.77
2019-03-25T08:03:40.923Z,4.80
2019-03-25T08:08:45.266Z,5.97
2019-03-25T08:13:49.563Z,5.27
2019-03-25T08:18:53.786Z,5.60
2019-03-25T08:23:58.002Z,4.83
2019-03-25T08:29:02.452Z,4.10
2019-03-25T08:34:07.237Z,5.00
2019-03-25T08:39:11.473Z,4.30
2019-03-25T08:44:29.693Z,3.80
2019-03-25T08:49:34.015Z,3.10
2019-03-25T08:54:39.237Z,2.90
2019-03-25T08:59:43.566Z,3.00
2019-03-25T09:04:47.774Z,3.00
2019-03-25T09:09:52.065Z,3.00
2019-03-25T09:14:56.405Z,2.83
2019-03-25T09:20:00.806Z,2.60
2019-03-25T09:25:08.448Z,2.43
2019-03-25T09:30:55.802Z,2.60
2019-03-25T09:36:00.277Z,2.47
2019-03-25T09:41:04.870Z,2.03
2019-03-25T09:46:09.388Z,2.00
2019-03-25T09:51:13.710Z,1.80
2019-03-25T09:56:18.367Z,1.80
2019-03-25T10:01:22.698Z,1.70
2019-03-25T10:06:27.234Z,1.77
2019-03-25T10:11:31.481Z,1.80
2019-03-25T10:16:35.735Z,1.90
2019-03-25T10:22:01.365Z,2.07
2019-03-25T10:27:05.850Z,2.03
2019-03-25T10:32:10.613Z,2.00
2019-03-25T10:37:14.962Z,2.30
2019-03-25T10:42:19.725Z,2.20
2019-03-25T10:47:25.540Z,2.10
2019-03-25T10:52:30.688Z,1.93
2019-03-25T10:57:35.050Z,2.20
2019-03-25T11:02:39.626Z,2.10
2019-03-25T11:07:43.979Z,2.37
2019-03-25T11:13:32.186Z,2.17
2019-03-25T11:19:42.525Z,1.80
2019-03-25T11:24:46.778Z,1.70
2019-03-25T11:29:51.952Z,2.30
2019-03-25T11:34:56.917Z,2.17
2019-03-25T11:40:01.255Z,2.40
2019-03-25T11:45:06.297Z,2.30
2019-03-25T11:50:10.921Z,2.60
2019-03-25T11:55:15.312Z,2.67
2019-03-25T12:00:20.466Z,2.40
2019-03-25T12:05:25.013Z,2.67
2019-03-25T12:10:29.342Z,2.40
2019-03-25T12:15:34.749Z,2.80
2019-03-25T12:20:41.353Z,1.57
2019-03-25T12:25:45.565Z,1.70
2019-03-25T12:30:50.362Z,1.43
2019-03-25T12:35:54.644Z,1.77
2019-03-25T12:40:59.121Z,1.83
2019-03-25T12:46:03.425Z,1.67
2019-03-25T12:51:07.714Z,1.30
2019-03-25T12:56:11.920Z,1.70
2019-03-25T13:01:16.138Z,1.40
2019-03-25T13:06:20.593Z,4.00
2019-03-25T13:11:25.157Z,2.53
2019-03-25T13:16:29.642Z,1.87
2019-03-25T13:21:33.879Z,1.30
2019-03-25T13:26:38.117Z,1.43
2019-03-25T13:31:42.625Z,1.50
2019-03-25T13:36:46.833Z,1.90
2019-03-25T13:41:51.737Z,2.50
2019-03-25T13:46:55.987Z,1.40
2019-03-25T13:52:00.461Z,1.67
2019-03-25T13:57:04.765Z,1.67
2019-03-25T14:02:08.997Z,1.97
2019-03-25T14:07:13.221Z,1.60
2019-03-25T14:12:17.429Z,2.00
2019-03-25T14:17:24.252Z,2.00
2019-03-25T14:22:28.844Z,1.60
2019-03-25T14:27:33.049Z,1.60
2019-03-25T14:32:37.305Z,1.23
2019-03-25T14:37:41.559Z,1.47
2019-03-25T14:42:46.603Z,1.27
2019-03-25T14:47:50.850Z,1.33
2019-03-25T14:52:58.159Z,1.40
2019-03-25T14:58:02.386Z,1.40
2019-03-25T15:03:06.621Z,1.40
2019-03-25T15:08:10.840Z,1.40
2019-03-25T15:13:16.114Z,1.30
2019-03-25T15:18:20.357Z,1.10
2019-03-25T15:23:24.602Z,1.60
2019-03-25T15:28:29.871Z,1.27
2019-03-25T15:33:34.950Z,1.20
2019-03-25T15:38:39.335Z,1.30
2019-03-25T15:43:43.581Z,1.50
2019-03-25T15:48:47.883Z,1.47
2019-03-25T15:53:52.330Z,1.73
2019-03-25T15:58:56.874Z,1.00
2019-03-25T16:04:01.210Z,1.70
2019-03-25T16:09:09.040Z,1.47
2019-03-25T16:14:13.577Z,1.70
2019-03-25T16:19:18.050Z,1.13
2019-03-25T16:24:22.357Z,1.70
2019-03-25T16:29:27.405Z,1.47
2019-03-25T16:34:31.625Z,1.50
2019-03-25T16:39:35.873Z,1.80
2019-03-25T16:44:40.113Z,1.57
2019-03-25T16:49:44.612Z,1.70
2019-03-25T16:54:48.841Z,1.47
2019-03-25T16:59:57.409Z,1.50
2019-03-25T17:05:01.664Z,1.63
2019-03-25T17:10:06.325Z,1.53
2019-03-25T17:15:11.237Z,1.70
2019-03-25T17:20:15.938Z,1.90
2019-03-25T17:25:20.179Z,1.53
2019-03-25T17:30:24.949Z,1.40
2019-03-25T17:35:29.204Z,1.40
2019-03-25T17:40:33.480Z,1.77
2019-03-25T17:45:37.847Z,1.50
2019-03-25T17:50:42.102Z,1.40
2019-03-25T17:55:58.310Z,1.20
2019-03-25T18:01:35.666Z,1.60
2019-03-25T18:06:40.027Z,1.60
2019-03-25T18:11:44.373Z,1.50
2019-03-25T18:16:48.827Z,1.53
2019-03-25T18:21:54.527Z,1.60
2019-03-25T18:26:59.961Z,1.50
2019-03-25T18:32:04.295Z,1.53
2019-03-25T18:37:08.518Z,1.67
2019-03-25T18:42:13.021Z,1.67
2019-03-25T18:47:17.601Z,1.73
2019-03-25T18:52:21.904Z,1.70
2019-03-25T18:57:26.206Z,1.67
2019-03-25T19:02:30.780Z,1.67
2019-03-25T19:07:36.384Z,1.67
2019-03-25T19:12:41.222Z,1.67
2019-03-25T19:17:45.667Z,1.47
2019-03-25T19:22:50.329Z,2.17
2019-03-25T19:27:54.912Z,1.47
2019-03-25T19:32:59.704Z,2.17
2019-03-25T19:38:04.376Z,1.83
2019-03-25T19:43:09.440Z,1.70
2019-03-25T19:48:15.405Z,1.80
2019-03-25T19:53:20.174Z,1.50
2019-03-25T19:58:24.931Z,1.67
2019-03-25T20:03:29.712Z,1.67
2019-03-25T20:08:34.501Z,1.90
2019-03-25T20:13:39.042Z,1.77
2019-03-25T20:18:44.076Z,1.80
2019-03-25T20:23:50.485Z,1.70
2019-03-25T20:28:55.118Z,1.83
2019-03-25T20:34:10.455Z,1.50
2019-03-25T20:39:08.644Z,1.80
2019-03-25T20:44:12.913Z,1.80
2019-03-25T20:49:17.171Z,2.00
2019-03-25T20:54:21.534Z,1.90
2019-03-25T20:59:26.418Z,2.37
2019-03-25T21:04:32.582Z,1.73
2019-03-25T21:09:36.923Z,2.33
2019-03-25T21:14:41.313Z,2.67
2019-03-25T21:19:45.947Z,2.80
2019-03-25T21:24:50.363Z,2.67
2019-03-25T21:29:54.724Z,2.80
2019-03-25T21:34:59.111Z,2.73
2019-03-25T21:40:03.541Z,2.40
2019-03-25T21:45:08.347Z,2.60
2019-03-25T21:50:12.960Z,2.40
2019-03-25T21:55:17.247Z,2.40
2019-03-25T22:00:21.633Z,2.50
2019-03-25T22:05:26.166Z,2.60
2019-03-25T22:10:30.394Z,2.90
2019-03-25T22:15:34.614Z,3.00
2019-03-25T22:20:38.833Z,3.40
2019-03-25T22:25:43.047Z,3.30
2019-03-25T22:30:47.549Z,3.33
2019-03-25T22:35:52.182Z,3.10
2019-03-25T22:41:15.376Z,3.23
2019-03-25T22:46:19.894Z,3.30
2019-03-25T22:51:24.125Z,3.63
2019-03-25T22:56:28.668Z,3.67
2019-03-25T23:01:33.224Z,3.27
2019-03-25T23:06:37.448Z,3.63
2019-03-25T23:11:41.675Z,4.20
2019-03-25T23:16:45.898Z,3.93
2019-03-25T23:21:50.121Z,4.03
2019-03-25T23:26:54.329Z,4.40
2019-03-25T23:31:58.821Z,4.40
2019-03-25T23:37:03.030Z,4.57
2019-03-25T23:42:07.249Z,4.63
2019-03-25T23:47:11.468Z,5.00
2019-03-25T23:52:15.687Z,4.93
2019-03-25T23:57:19.901Z,5.17
